createdAt,value
2022-10-15T00:00:33.908Z,93.21
2022-10-15T00:03:25.606Z,93.51
2022-10-15T00:05:57.666Z,93.35
2022-10-15T00:08:29.192Z,93.16
2022-10-15T00:11:08.011Z,93.71
2022-10-15T00:13:40.457Z,93.45
2022-10-15T00:16:15.480Z,92.83
2022-10-15T00:18:48.128Z,92.48
2022-10-15T00:21:21.344Z,92.32
2022-10-15T00:23:53.700Z,92.62
2022-10-15T00:26:28.216Z,91.98
2022-10-15T00:29:02.032Z,91.32
2022-10-15T00:31:34.697Z,90.90
2022-10-15T00:34:06.321Z,91.56
2022-10-15T00:36:39.061Z,91.66
2022-10-15T00:39:11.662Z,91.49
2022-10-15T00:41:45.244Z,91.83
2022-10-15T00:44:55.348Z,92.58
2022-10-15T00:47:41.928Z,91.99
2022-10-15T00:50:16.756Z,91.15
2022-10-15T00:53:01.554Z,91.00
2022-10-15T00:55:36.201Z,92.16
2022-10-15T01:00:45.204Z,91.57
2022-10-15T01:03:17.287Z,91.16
2022-10-15T01:05:51.753Z,91.59
2022-10-15T01:08:23.483Z,91.62
2022-10-15T01:11:15.570Z,91.32
2022-10-15T01:13:56.524Z,90.79
2022-10-15T01:16:36.379Z,90.63
2022-10-15T01:19:18.035Z,90.32
2022-10-15T01:21:57.052Z,90.81
2022-10-15T01:24:46.925Z,91.36
2022-10-15T01:27:28.749Z,90.39
2022-10-15T01:30:31.864Z,90.11
2022-10-15T01:33:36.054Z,90.42
2022-10-15T01:36:17.345Z,90.83
2022-10-15T01:38:59.682Z,91.22
2022-10-15T01:41:40.415Z,91.71
2022-10-15T01:44:17.617Z,91.43
2022-10-15T01:47:01.382Z,91.36
2022-10-15T01:49:38.299Z,91.22
2022-10-15T01:52:14.909Z,90.61
2022-10-15T01:54:49.180Z,90.78
2022-10-15T01:57:26.430Z,90.99
2022-10-15T01:59:59.950Z,91.22
2022-10-15T02:02:33.094Z,91.75
2022-10-15T02:05:07.515Z,91.93
2022-10-15T02:07:48.345Z,91.66
2022-10-15T02:10:27.671Z,92.09
2022-10-15T02:13:06.708Z,92.31
2022-10-15T02:15:47.168Z,92.24
2022-10-15T02:18:25.533Z,91.94
2022-10-15T02:21:01.000Z,92.66
2022-10-15T02:23:39.494Z,93.43
2022-10-15T02:26:14.452Z,93.71
2022-10-15T02:28:51.115Z,92.93
2022-10-15T02:31:24.015Z,92.82
2022-10-15T02:33:56.537Z,92.91
2022-10-15T02:36:28.614Z,92.65
2022-10-15T02:39:02.874Z,92.48
2022-10-15T02:41:36.544Z,92.26
2022-10-15T02:44:08.372Z,92.81
2022-10-15T02:46:39.932Z,92.31
2022-10-15T02:49:11.529Z,92.60
2022-10-15T02:51:43.155Z,92.92
2022-10-15T02:54:15.030Z,92.75
2022-10-15T02:56:47.011Z,92.62
2022-10-15T02:59:19.831Z,92.36
2022-10-15T03:01:51.445Z,92.35
2022-10-15T03:04:23.137Z,92.05
2022-10-15T03:06:55.574Z,91.84
2022-10-15T03:09:28.207Z,92.23
2022-10-15T03:11:59.757Z,92.16
2022-10-15T03:14:31.616Z,91.96
2022-10-15T03:17:04.092Z,91.85
2022-10-15T03:19:35.991Z,92.24
2022-10-15T03:22:07.707Z,92.46
2022-10-15T03:24:47.170Z,92.92
2022-10-15T03:27:20.357Z,92.46
2022-10-15T03:29:52.314Z,92.20
2022-10-15T03:32:25.351Z,92.15
2022-10-15T03:34:57.238Z,92.35
2022-10-15T03:37:30.033Z,92.17
2022-10-15T03:40:02.363Z,92.18
2022-10-15T03:42:34.175Z,91.97
2022-10-15T03:45:08.058Z,91.69
2022-10-15T03:47:40.188Z,91.55
2022-10-15T03:50:12.506Z,92.08
2022-10-15T03:52:45.076Z,92.17
2022-10-15T03:55:17.943Z,91.80
2022-10-15T03:57:51.048Z,91.77
2022-10-15T04:00:23.289Z,91.77
2022-10-15T04:02:56.322Z,91.71
2022-10-15T04:05:31.360Z,91.95
2022-10-15T04:08:09.246Z,91.59
2022-10-15T04:10:44.550Z,91.15
2022-10-15T04:13:16.482Z,90.83
2022-10-15T04:15:48.582Z,90.75
2022-10-15T04:18:21.895Z,91.18
2022-10-15T04:20:55.590Z,91.26
2022-10-15T04:23:27.695Z,91.48
2022-10-15T04:26:19.904Z,91.66
2022-10-15T04:28:52.040Z,91.44
2022-10-15T04:31:24.863Z,91.36
2022-10-15T04:33:55.696Z,91.30
2022-10-15T04:36:27.507Z,91.25
2022-10-15T04:39:04.511Z,91.49
2022-10-15T04:41:46.919Z,91.59
2022-10-15T04:44:22.477Z,92.29
2022-10-15T04:46:58.866Z,91.49
2022-10-15T04:49:38.685Z,91.13
2022-10-15T04:52:15.496Z,91.94
2022-10-15T04:55:09.405Z,92.13
2022-10-15T04:57:42.130Z,92.09
2022-10-15T05:00:15.859Z,92.06
2022-10-15T05:02:47.501Z,91.41
2022-10-15T05:05:24.596Z,91.20
2022-10-15T05:08:03.848Z,90.93
2022-10-15T05:10:38.819Z,90.85
2022-10-15T05:13:11.273Z,91.15
2022-10-15T05:15:43.571Z,91.31
2022-10-15T05:18:15.577Z,91.38
2022-10-15T05:20:52.789Z,90.84
2022-10-15T05:23:24.668Z,91.40
2022-10-15T05:26:05.320Z,91.14
2022-10-15T05:28:37.835Z,91.17
2022-10-15T05:31:17.592Z,90.98
2022-10-15T05:33:51.373Z,91.11
2022-10-15T05:36:29.809Z,91.04
2022-10-15T05:39:03.605Z,90.69
2022-10-15T05:41:36.221Z,90.56
2022-10-15T05:44:07.882Z,90.30
2022-10-15T05:46:39.592Z,90.53
2022-10-15T05:49:11.764Z,90.79
2022-10-15T05:51:52.759Z,90.39
2022-10-15T05:54:34.790Z,90.53
2022-10-15T05:57:06.317Z,90.14
2022-10-15T05:59:38.078Z,90.34
2022-10-15T06:02:16.077Z,90.14
2022-10-15T06:04:49.582Z,90.55
2022-10-15T06:07:21.434Z,90.77
2022-10-15T06:09:53.521Z,90.65
2022-10-15T06:12:29.459Z,90.63
2022-10-15T06:15:01.013Z,91.12
2022-10-15T06:17:32.618Z,91.43
2022-10-15T06:20:04.951Z,91.15
2022-10-15T06:25:14.037Z,91.49
2022-10-15T06:27:45.893Z,91.04
2022-10-15T06:30:17.490Z,91.28
2022-10-15T06:32:52.106Z,90.92
2022-10-15T06:35:25.331Z,90.16
2022-10-15T06:38:00.682Z,90.51
2022-10-15T06:40:35.158Z,90.11
2022-10-15T06:43:09.030Z,89.39
2022-10-15T06:45:42.988Z,88.98
2022-10-15T06:48:21.639Z,88.89
2022-10-15T06:50:53.392Z,88.71
2022-10-15T06:53:25.091Z,88.60
2022-10-15T06:56:01.189Z,88.75
2022-10-15T06:58:36.353Z,88.83
2022-10-15T07:01:10.119Z,88.97
2022-10-15T07:03:41.798Z,89.04
2022-10-15T07:06:13.796Z,94.80
2022-10-15T07:08:45.996Z,90.38
2022-10-15T07:11:18.264Z,90.74
2022-10-15T07:13:50.137Z,91.29
2022-10-15T07:16:21.637Z,89.13
2022-10-15T07:18:53.186Z,88.53
2022-10-15T07:21:25.303Z,88.40
2022-10-15T07:23:57.237Z,88.29
2022-10-15T07:26:30.255Z,88.86
2022-10-15T07:29:03.449Z,89.00
2022-10-15T07:31:36.225Z,88.74
2022-10-15T07:34:09.418Z,88.77
2022-10-15T07:36:42.422Z,88.68
2022-10-15T07:39:14.338Z,88.75
2022-10-15T07:41:46.796Z,88.80
2022-10-15T07:44:18.564Z,88.61
2022-10-15T07:46:50.978Z,88.83
2022-10-15T07:49:22.587Z,88.57
2022-10-15T07:51:54.322Z,88.90
2022-10-15T07:54:26.495Z,88.80
2022-10-15T07:56:58.068Z,89.18
2022-10-15T07:59:29.740Z,90.01
2022-10-15T08:02:01.492Z,90.62
2022-10-15T08:04:34.995Z,90.14
2022-10-15T08:07:08.046Z,90.16
2022-10-15T08:09:42.147Z,90.63
2022-10-15T08:12:14.245Z,90.52
2022-10-15T08:14:45.839Z,89.88
2022-10-15T08:17:17.484Z,89.40
2022-10-15T08:19:49.173Z,89.90
2022-10-15T08:22:21.099Z,89.16
2022-10-15T08:24:53.121Z,88.65
2022-10-15T08:27:24.931Z,88.28
2022-10-15T08:30:02.197Z,88.05
2022-10-15T08:32:33.913Z,88.75
2022-10-15T08:35:05.643Z,87.94
2022-10-15T08:37:37.301Z,87.48
2022-10-15T08:40:11.447Z,87.44
2022-10-15T08:42:46.276Z,87.33
2022-10-15T08:45:21.244Z,87.36
2022-10-15T08:48:01.183Z,87.49
2022-10-15T08:50:41.320Z,87.16
2022-10-15T08:53:19.724Z,86.92
2022-10-15T08:55:54.940Z,86.46
2022-10-15T08:58:41.373Z,86.34
2022-10-15T09:01:19.405Z,86.02
2022-10-15T09:04:02.275Z,86.06
2022-10-15T09:06:38.064Z,85.92
2022-10-15T09:09:18.522Z,85.99
2022-10-15T09:12:00.325Z,86.04
2022-10-15T09:14:39.156Z,85.98
2022-10-15T09:17:20.562Z,86.07
2022-10-15T09:19:56.311Z,85.93
2022-10-15T09:22:30.824Z,85.24
2022-10-15T09:25:07.058Z,84.82
2022-10-15T09:27:40.512Z,84.67
2022-10-15T09:30:26.565Z,84.43
2022-10-15T09:33:04.710Z,84.04
2022-10-15T09:35:45.006Z,83.26
2022-10-15T09:38:33.451Z,82.72
2022-10-15T09:41:18.672Z,81.91
2022-10-15T09:43:53.687Z,81.30
2022-10-15T09:46:27.431Z,80.88
2022-10-15T09:49:09.635Z,80.26
2022-10-15T09:51:47.451Z,80.48
2022-10-15T09:54:26.421Z,80.42
2022-10-15T09:56:59.119Z,80.28
2022-10-15T10:02:20.713Z,79.64
2022-10-15T10:04:53.483Z,80.23
2022-10-15T10:07:33.607Z,80.82
2022-10-15T10:10:21.837Z,81.04
2022-10-15T10:12:55.464Z,81.90
2022-10-15T10:15:37.196Z,81.66
2022-10-15T10:18:18.801Z,81.87
2022-10-15T10:21:00.116Z,81.89
2022-10-15T10:23:36.898Z,81.89
2022-10-15T10:26:11.285Z,81.60
2022-10-15T10:28:48.917Z,81.49
2022-10-15T10:31:28.554Z,81.69
2022-10-15T10:34:03.828Z,82.08
2022-10-15T10:36:39.500Z,81.51
2022-10-15T10:39:26.145Z,81.72
2022-10-15T10:42:00.493Z,81.97
2022-10-15T10:44:35.201Z,82.42
2022-10-15T10:47:14.584Z,82.75
2022-10-15T10:49:48.803Z,81.97
2022-10-15T10:52:38.025Z,81.21
2022-10-15T10:55:20.085Z,81.01
2022-10-15T10:57:54.447Z,80.98
2022-10-15T11:00:32.560Z,81.14
2022-10-15T11:03:04.541Z,80.34
2022-10-15T11:05:41.531Z,80.22
2022-10-15T11:08:27.275Z,79.88
2022-10-15T11:11:06.252Z,79.68
2022-10-15T11:13:48.632Z,79.79
2022-10-15T11:16:29.198Z,79.62
2022-10-15T11:19:19.833Z,79.86
2022-10-15T11:22:26.577Z,79.86
2022-10-15T11:25:07.693Z,79.52
2022-10-15T11:27:52.496Z,79.41
2022-10-15T11:30:43.939Z,77.78
2022-10-15T11:33:34.973Z,76.88
2022-10-15T11:36:21.952Z,74.85
2022-10-15T11:39:01.217Z,74.02
2022-10-15T11:41:46.011Z,72.43
2022-10-15T11:44:33.110Z,71.61
2022-10-15T11:47:22.484Z,72.26
2022-10-15T11:50:10.209Z,71.28
2022-10-15T11:52:57.122Z,71.11
2022-10-15T11:55:36.656Z,71.23
2022-10-15T11:58:16.829Z,72.34
2022-10-15T12:00:56.674Z,72.32
2022-10-15T12:03:35.114Z,72.18
2022-10-15T12:06:10.776Z,72.50
2022-10-15T12:08:44.776Z,72.92
2022-10-15T12:11:28.873Z,73.44
2022-10-15T12:14:07.525Z,73.74
2022-10-15T12:16:45.799Z,73.78
2022-10-15T12:19:21.185Z,73.89
2022-10-15T12:22:11.328Z,74.06
2022-10-15T12:24:56.403Z,73.83
2022-10-15T12:27:34.607Z,74.28
2022-10-15T12:30:27.833Z,74.41
2022-10-15T12:32:58.288Z,74.57
2022-10-15T12:35:43.788Z,74.57
2022-10-15T12:38:24.688Z,74.73
2022-10-15T12:41:05.723Z,74.60
2022-10-15T12:43:41.126Z,74.35
2022-10-15T12:46:16.457Z,73.87
2022-10-15T12:48:54.010Z,73.61
2022-10-15T12:51:35.281Z,74.01
2022-10-15T12:54:41.664Z,73.52
2022-10-15T12:57:56.121Z,73.42
2022-10-15T13:00:42.871Z,73.12
2022-10-15T13:03:41.112Z,73.20
2022-10-15T13:06:32.809Z,73.56
2022-10-15T13:09:25.738Z,73.60
2022-10-15T13:12:00.024Z,73.93
2022-10-15T13:14:36.890Z,73.75
2022-10-15T13:17:17.681Z,74.39
2022-10-15T13:20:04.772Z,74.58
2022-10-15T13:22:38.258Z,74.80
2022-10-15T13:25:20.212Z,75.34
2022-10-15T13:27:52.179Z,75.31
2022-10-15T13:30:24.792Z,74.92
2022-10-15T13:32:56.525Z,74.86
2022-10-15T13:35:32.490Z,74.56
2022-10-15T13:38:06.154Z,74.22
2022-10-15T13:40:38.562Z,74.27
2022-10-15T13:43:17.181Z,74.16
2022-10-15T13:45:55.177Z,74.35
2022-10-15T13:48:29.409Z,74.36
2022-10-15T13:51:04.197Z,74.05
2022-10-15T13:53:38.894Z,73.84
2022-10-15T13:56:24.527Z,73.94
2022-10-15T13:58:58.260Z,73.96
2022-10-15T14:01:33.372Z,74.68
2022-10-15T14:04:16.011Z,74.95
2022-10-15T14:09:33.741Z,75.22
2022-10-15T14:12:09.424Z,75.29
2022-10-15T14:14:45.216Z,75.49
2022-10-15T14:17:26.363Z,75.96
2022-10-15T14:20:25.633Z,75.78
2022-10-15T14:22:54.058Z,75.70
2022-10-15T14:25:27.774Z,75.81
2022-10-15T14:27:59.672Z,76.17
2022-10-15T14:30:36.007Z,76.31
2022-10-15T14:33:21.595Z,76.69
2022-10-15T14:36:07.347Z,76.55
2022-10-15T14:38:42.112Z,76.37
2022-10-15T14:41:31.027Z,76.51
2022-10-15T14:44:18.083Z,77.02
2022-10-15T14:46:54.236Z,77.40
2022-10-15T14:49:29.412Z,77.21
2022-10-15T14:52:05.833Z,77.58
2022-10-15T14:54:43.616Z,77.83
2022-10-15T14:57:22.453Z,77.80
2022-10-15T14:59:57.311Z,77.92
2022-10-15T15:02:31.857Z,78.13
2022-10-15T15:05:22.776Z,78.40
2022-10-15T15:07:56.970Z,79.07
2022-10-15T15:10:29.614Z,78.89
2022-10-15T15:13:01.457Z,79.19
2022-10-15T15:15:33.490Z,79.57
2022-10-15T15:18:05.178Z,80.01
2022-10-15T15:20:37.427Z,80.22
2022-10-15T15:23:13.851Z,80.10
2022-10-15T15:25:45.656Z,80.48
2022-10-15T15:28:21.913Z,80.37
2022-10-15T15:31:00.772Z,81.00
2022-10-15T15:33:33.038Z,81.36
2022-10-15T15:36:08.862Z,81.32
2022-10-15T15:38:40.854Z,81.87
2022-10-15T15:41:17.375Z,81.91
2022-10-15T15:43:49.419Z,82.37
2022-10-15T15:46:21.854Z,82.75
2022-10-15T15:48:53.638Z,82.83
2022-10-15T15:51:28.928Z,83.09
2022-10-15T15:54:04.589Z,83.51
2022-10-15T15:56:36.554Z,83.78
2022-10-15T15:59:08.350Z,83.74
2022-10-15T16:01:40.121Z,84.00
2022-10-15T16:04:11.820Z,84.18
2022-10-15T16:06:48.962Z,84.56
2022-10-15T16:09:22.938Z,85.40
2022-10-15T16:11:54.527Z,87.24
2022-10-15T16:14:26.165Z,88.02
2022-10-15T16:16:58.144Z,88.33
2022-10-15T16:19:29.708Z,88.30
2022-10-15T16:22:03.941Z,88.21
2022-10-15T16:24:35.789Z,88.24
2022-10-15T16:27:07.388Z,88.85
2022-10-15T16:29:39.134Z,90.59
2022-10-15T16:32:10.870Z,90.57
2022-10-15T16:34:42.946Z,91.93
2022-10-15T16:37:14.640Z,92.91
2022-10-15T16:39:46.322Z,94.47
2022-10-15T16:44:54.368Z,94.67
2022-10-15T16:47:26.187Z,94.66
2022-10-15T16:49:58.026Z,94.57
2022-10-15T16:52:29.705Z,94.25
2022-10-15T16:55:01.272Z,94.43
2022-10-15T16:57:33.182Z,94.53
2022-10-15T17:00:05.530Z,94.69
2022-10-15T17:02:37.853Z,94.50
2022-10-15T17:05:11.330Z,94.59
2022-10-15T17:07:43.939Z,94.41
2022-10-15T17:10:15.675Z,94.53
2022-10-15T17:12:47.258Z,94.59
2022-10-15T17:15:18.871Z,94.54
2022-10-15T17:17:51.222Z,94.22
2022-10-15T17:20:23.082Z,94.18
2022-10-15T17:22:54.823Z,94.10
2022-10-15T17:25:26.539Z,94.17
2022-10-15T17:27:58.497Z,94.21
2022-10-15T17:30:30.420Z,94.03
2022-10-15T17:33:02.522Z,93.95
2022-10-15T17:35:39.096Z,93.94
2022-10-15T17:38:11.812Z,93.90
2022-10-15T17:40:42.045Z,93.68
2022-10-15T17:43:13.741Z,93.68
2022-10-15T17:45:45.528Z,93.74
2022-10-15T17:48:17.315Z,93.44
2022-10-15T17:50:49.197Z,93.30
2022-10-15T17:53:20.863Z,93.40
2022-10-15T17:55:52.554Z,93.55
2022-10-15T17:58:24.657Z,93.63
2022-10-15T18:00:58.234Z,94.19
2022-10-15T18:03:31.352Z,94.29
2022-10-15T18:06:09.332Z,94.23
2022-10-15T18:08:41.766Z,94.45
2022-10-15T18:11:15.775Z,94.89
2022-10-15T18:13:47.583Z,95.05
2022-10-15T18:16:19.786Z,94.93
2022-10-15T18:18:52.538Z,94.98
2022-10-15T18:21:26.284Z,94.99
2022-10-15T18:24:01.875Z,94.81
2022-10-15T18:26:33.743Z,94.83
2022-10-15T18:29:06.055Z,94.71
2022-10-15T18:31:37.733Z,95.23
2022-10-15T18:34:09.327Z,95.07
2022-10-15T18:36:42.504Z,95.28
2022-10-15T18:39:14.576Z,95.35
2022-10-15T18:41:46.379Z,96.00
2022-10-15T18:44:21.507Z,95.89
2022-10-15T18:46:53.762Z,95.62
2022-10-15T18:49:25.421Z,95.60
2022-10-15T18:51:57.431Z,95.36
2022-10-15T18:54:36.251Z,95.07
2022-10-15T18:57:07.943Z,94.91
2022-10-15T18:59:40.137Z,94.97
2022-10-15T19:02:12.530Z,95.04
2022-10-15T19:04:44.747Z,95.61
2022-10-15T19:07:17.871Z,95.56
2022-10-15T19:09:50.519Z,95.55
2022-10-15T19:12:24.851Z,95.63
2022-10-15T19:14:57.700Z,95.47
2022-10-15T19:17:30.083Z,95.76
2022-10-15T19:20:01.864Z,95.70
2022-10-15T19:22:33.628Z,95.60
2022-10-15T19:25:06.374Z,95.44
2022-10-15T19:27:38.085Z,95.48
2022-10-15T19:30:11.374Z,95.77
2022-10-15T19:32:44.162Z,95.64
2022-10-15T19:35:16.268Z,95.78
2022-10-15T19:37:49.022Z,95.48
2022-10-15T19:40:21.345Z,95.72
2022-10-15T19:42:53.342Z,95.28
2022-10-15T19:45:24.538Z,95.20
2022-10-15T19:47:59.940Z,95.27
2022-10-15T19:50:36.574Z,95.15
2022-10-15T19:53:16.337Z,94.94
2022-10-15T19:55:58.228Z,94.81
2022-10-15T19:58:30.881Z,94.87
2022-10-15T20:01:01.380Z,95.06
2022-10-15T20:06:11.251Z,94.87
2022-10-15T20:08:43.321Z,94.51
2022-10-15T20:11:15.139Z,94.69
2022-10-15T20:13:48.092Z,94.74
2022-10-15T20:16:23.030Z,94.68
2022-10-15T20:18:56.585Z,94.73
2022-10-15T20:21:28.745Z,94.79
2022-10-15T20:24:03.945Z,94.95
2022-10-15T20:26:35.998Z,95.30
2022-10-15T20:29:07.579Z,95.19
2022-10-15T20:31:39.710Z,94.97
2022-10-15T20:34:11.326Z,95.03
2022-10-15T20:36:43.035Z,95.58
2022-10-15T20:39:14.690Z,95.28
2022-10-15T20:41:46.677Z,95.17
2022-10-15T20:44:18.726Z,95.20
2022-10-15T20:46:55.413Z,95.50
2022-10-15T20:49:30.879Z,95.69
2022-10-15T20:52:02.969Z,95.56
2022-10-15T20:54:35.319Z,95.50
2022-10-15T20:57:07.126Z,95.74
2022-10-15T20:59:39.124Z,95.82
2022-10-15T21:02:11.056Z,95.88
2022-10-15T21:04:42.693Z,95.82
2022-10-15T21:07:14.470Z,95.89
2022-10-15T21:09:46.447Z,96.38
2022-10-15T21:12:18.659Z,96.21
2022-10-15T21:14:50.559Z,96.51
2022-10-15T21:17:23.358Z,97.11
2022-10-15T21:19:55.740Z,97.21
2022-10-15T21:22:27.601Z,97.11
2022-10-15T21:24:59.500Z,97.08
2022-10-15T21:27:31.650Z,96.54
2022-10-15T21:30:03.291Z,96.72
2022-10-15T21:32:35.043Z,96.57
2022-10-15T21:35:07.890Z,96.54
2022-10-15T21:37:38.663Z,96.53
2022-10-15T21:40:12.889Z,96.65
2022-10-15T21:42:44.497Z,96.83
2022-10-15T21:45:16.608Z,97.02
2022-10-15T21:47:48.396Z,96.64
2022-10-15T21:50:20.303Z,96.82
2022-10-15T21:52:51.874Z,96.25
2022-10-15T21:55:28.348Z,96.01
2022-10-15T21:58:02.108Z,95.74
2022-10-15T22:00:33.868Z,95.72
2022-10-15T22:03:06.243Z,95.74
2022-10-15T22:05:38.124Z,95.66
2022-10-15T22:08:10.903Z,95.48
2022-10-15T22:10:41.797Z,95.39
2022-10-15T22:13:13.433Z,95.47
2022-10-15T22:15:45.037Z,95.20
2022-10-15T22:18:16.848Z,95.34
2022-10-15T22:20:49.075Z,95.40
2022-10-15T22:23:25.393Z,95.23
2022-10-15T22:26:02.846Z,95.16
2022-10-15T22:28:34.508Z,95.12
2022-10-15T22:31:08.386Z,95.17
2022-10-15T22:33:40.648Z,94.93
2022-10-15T22:36:16.915Z,94.86
2022-10-15T22:38:52.984Z,94.81
2022-10-15T22:41:25.358Z,94.57
2022-10-15T22:43:56.996Z,94.55
2022-10-15T22:46:29.080Z,94.65
2022-10-15T22:49:00.625Z,94.39
2022-10-15T22:51:32.460Z,94.26
2022-10-15T22:54:04.413Z,94.22
2022-10-15T22:56:37.947Z,93.92
2022-10-15T23:01:42.724Z,94.08
2022-10-15T23:04:16.401Z,94.32
2022-10-15T23:06:48.009Z,94.24
2022-10-15T23:09:19.993Z,94.30
2022-10-15T23:11:52.225Z,94.29
2022-10-15T23:14:23.902Z,94.23
2022-10-15T23:16:55.515Z,94.29
2022-10-15T23:19:27.201Z,94.43
2022-10-15T23:22:00.044Z,94.32
2022-10-15T23:24:31.751Z,94.73
2022-10-15T23:27:03.720Z,94.58
2022-10-15T23:29:35.725Z,94.47
2022-10-15T23:32:07.746Z,94.44
2022-10-15T23:34:39.388Z,94.38
2022-10-15T23:37:11.183Z,94.31
2022-10-15T23:39:42.766Z,94.26
2022-10-15T23:42:14.596Z,94.37
2022-10-15T23:44:46.636Z,94.66
2022-10-15T23:47:18.461Z,94.72
2022-10-15T23:49:50.207Z,94.59
2022-10-15T23:52:22.158Z,94.62
2022-10-15T23:54:53.737Z,94.82
2022-10-15T23:57:26.200Z,94.76
2022-10-15T23:59:58.938Z,94.79
